createdAt,value
2022-11-23T00:01:41.203Z,89.10
2022-11-23T00:04:14.367Z,89.00
2022-11-23T00:06:47.045Z,89.10
2022-11-23T00:09:19.338Z,89.00
2022-11-23T00:11:52.487Z,89.10
2022-11-23T00:14:22.294Z,89.20
2022-11-23T00:16:53.022Z,89.10
2022-11-23T00:19:23.855Z,89.20
2022-11-23T00:21:54.642Z,88.80
2022-11-23T00:24:26.451Z,88.80
2022-11-23T00:26:57.228Z,88.50
2022-11-23T00:29:28.534Z,88.60
2022-11-23T00:32:01.177Z,88.80
2022-11-23T00:34:34.674Z,88.60
2022-11-23T00:37:08.462Z,88.50
2022-11-23T00:39:39.245Z,88.40
2022-11-23T00:42:09.950Z,88.10
2022-11-23T00:44:40.723Z,88.20
2022-11-23T00:47:11.465Z,88.10
2022-11-23T00:49:42.176Z,87.90
2022-11-23T00:52:13.022Z,87.80
2022-11-23T00:54:44.006Z,87.50
2022-11-23T00:57:14.776Z,87.40
2022-11-23T00:59:45.737Z,87.60
2022-11-23T01:02:18.348Z,87.70
2022-11-23T01:04:49.121Z,87.70
2022-11-23T01:07:19.964Z,87.30
2022-11-23T01:09:50.820Z,87.10
2022-11-23T01:12:22.825Z,86.90
2022-11-23T01:14:57.707Z,86.70
2022-11-23T01:17:30.350Z,86.50
2022-11-23T01:20:02.807Z,86.20
2022-11-23T01:22:33.774Z,86.20
2022-11-23T01:25:07.630Z,86.10
2022-11-23T01:27:38.366Z,86.00
2022-11-23T01:30:09.996Z,86.00
2022-11-23T01:35:41.932Z,85.90
2022-11-23T01:38:17.810Z,85.90
2022-11-23T01:40:45.981Z,85.70
2022-11-23T01:43:21.869Z,85.80
2022-11-23T01:45:54.980Z,85.80
2022-11-23T01:48:38.116Z,85.70
2022-11-23T01:51:25.927Z,85.70
2022-11-23T01:53:53.289Z,85.60
2022-11-23T01:56:37.106Z,85.60
2022-11-23T01:59:17.172Z,85.70
2022-11-23T02:01:48.292Z,85.10
2022-11-23T02:04:23.608Z,85.00
2022-11-23T02:06:55.008Z,85.00
2022-11-23T02:09:26.565Z,85.00
2022-11-23T02:11:57.379Z,85.00
2022-11-23T02:14:29.240Z,85.10
2022-11-23T02:17:01.553Z,85.20
2022-11-23T02:19:38.547Z,85.10
2022-11-23T02:22:14.318Z,85.20
2022-11-23T02:24:47.428Z,85.10
2022-11-23T02:27:18.983Z,85.10
2022-11-23T02:30:03.748Z,84.90
2022-11-23T02:32:36.089Z,84.70
2022-11-23T02:35:12.803Z,84.20
2022-11-23T02:37:44.074Z,83.70
2022-11-23T02:40:33.665Z,83.10
2022-11-23T02:42:53.429Z,83.10
2022-11-23T02:45:30.417Z,82.70
2022-11-23T02:48:07.638Z,82.90
2022-11-23T02:53:39.625Z,82.00
2022-11-23T02:56:12.310Z,81.90
2022-11-23T02:58:42.758Z,82.00
2022-11-23T03:01:18.696Z,81.80
2022-11-23T03:04:36.980Z,81.90
2022-11-23T03:06:31.522Z,81.90
2022-11-23T03:09:02.278Z,82.00
2022-11-23T03:11:33.229Z,82.20
2022-11-23T03:14:03.997Z,82.40
2022-11-23T03:16:36.325Z,82.20
2022-11-23T03:19:07.340Z,82.30
2022-11-23T03:21:41.595Z,82.20
2022-11-23T03:24:12.632Z,82.20
2022-11-23T03:26:43.526Z,82.00
2022-11-23T03:29:14.243Z,81.80
2022-11-23T03:31:45.219Z,81.50
2022-11-23T03:34:16.099Z,81.30
2022-11-23T03:39:49.104Z,81.10
2022-11-23T03:42:31.378Z,81.30
2022-11-23T03:45:05.190Z,80.70
2022-11-23T03:47:35.974Z,80.50
2022-11-23T03:53:10.145Z,80.60
2022-11-23T03:55:55.322Z,80.50
2022-11-23T04:01:40.000Z,80.00
2022-11-23T04:04:12.250Z,80.10
2022-11-23T04:06:45.577Z,80.50
2022-11-23T04:09:25.131Z,80.40
2022-11-23T04:11:58.635Z,80.30
2022-11-23T04:14:29.469Z,80.30
2022-11-23T04:17:04.754Z,80.30
2022-11-23T04:19:35.193Z,80.80
2022-11-23T04:22:08.976Z,80.40
2022-11-23T04:24:41.087Z,80.10
2022-11-23T04:27:11.947Z,80.30
2022-11-23T04:29:42.720Z,80.50
2022-11-23T04:32:13.424Z,80.50
2022-11-23T04:34:45.889Z,80.30
2022-11-23T04:37:16.650Z,80.20
2022-11-23T04:39:47.399Z,80.20
2022-11-23T04:42:18.503Z,80.10
2022-11-23T04:44:49.850Z,80.20
2022-11-23T04:47:20.625Z,80.20
2022-11-23T04:49:51.820Z,80.30
2022-11-23T04:52:22.598Z,80.30
2022-11-23T04:54:53.343Z,80.30
2022-11-23T04:57:24.062Z,80.10
2022-11-23T04:59:54.862Z,79.80
2022-11-23T05:02:25.644Z,79.60
2022-11-23T05:04:56.376Z,79.50
2022-11-23T05:07:27.539Z,79.30
2022-11-23T05:10:05.491Z,78.90
2022-11-23T05:12:37.472Z,78.70
2022-11-23T05:15:11.978Z,78.80
2022-11-23T05:17:42.676Z,78.90
2022-11-23T05:20:14.085Z,79.30
2022-11-23T05:22:46.066Z,79.00
2022-11-23T05:25:18.500Z,79.20
2022-11-23T05:27:49.236Z,79.20
2022-11-23T05:30:23.517Z,79.20
2022-11-23T05:32:59.811Z,79.40
2022-11-23T05:35:30.763Z,79.40
2022-11-23T05:38:03.620Z,79.30
2022-11-23T05:40:34.377Z,79.40
2022-11-23T05:43:05.292Z,79.40
2022-11-23T05:45:36.081Z,80.30
2022-11-23T05:48:08.390Z,79.40
2022-11-23T05:50:39.117Z,79.20
2022-11-23T05:53:09.914Z,79.30
2022-11-23T05:55:40.715Z,79.10
2022-11-23T05:58:21.568Z,78.70
2022-11-23T06:00:53.003Z,78.90
2022-11-23T06:03:32.486Z,78.60
2022-11-23T06:06:06.375Z,78.00
2022-11-23T06:08:35.923Z,77.90
2022-11-23T06:11:18.111Z,77.00
2022-11-23T06:13:52.558Z,77.10
2022-11-23T06:16:24.948Z,77.20
2022-11-23T06:18:56.041Z,77.10
2022-11-23T06:21:29.925Z,76.70
2022-11-23T06:24:04.206Z,76.70
2022-11-23T06:26:37.688Z,77.00
2022-11-23T06:29:08.914Z,76.90
2022-11-23T06:31:39.730Z,76.40
2022-11-23T06:34:11.739Z,76.90
2022-11-23T06:36:42.527Z,76.20
2022-11-23T06:39:19.923Z,76.00
2022-11-23T06:41:50.752Z,75.90
2022-11-23T06:44:23.066Z,76.20
2022-11-23T06:46:56.859Z,76.60
2022-11-23T06:49:29.283Z,77.70
2022-11-23T06:52:15.872Z,76.60
2022-11-23T06:54:45.574Z,76.30
2022-11-23T06:57:16.826Z,76.60
2022-11-23T06:59:50.991Z,77.10
2022-11-23T07:02:24.789Z,77.60
2022-11-23T07:05:03.099Z,78.30
2022-11-23T07:07:40.310Z,79.00
2022-11-23T07:10:17.607Z,79.50
2022-11-23T07:12:47.057Z,79.70
2022-11-23T07:15:18.962Z,80.10
2022-11-23T07:17:49.978Z,80.80
2022-11-23T07:20:23.113Z,82.10
2022-11-23T07:23:07.679Z,81.70
2022-11-23T07:25:54.172Z,82.00
2022-11-23T07:28:28.461Z,82.20
2022-11-23T07:31:00.464Z,82.20
2022-11-23T07:33:46.666Z,82.70
2022-11-23T07:36:08.453Z,82.90
2022-11-23T07:38:44.810Z,82.80
2022-11-23T07:41:15.547Z,83.00
2022-11-23T07:43:46.379Z,82.50
2022-11-23T07:46:17.109Z,82.40
2022-11-23T07:48:50.918Z,82.60
2022-11-23T07:51:21.645Z,82.60
2022-11-23T07:54:28.765Z,82.40
2022-11-23T07:56:42.849Z,82.20
2022-11-23T07:59:13.917Z,82.10
2022-11-23T08:01:55.657Z,82.00
2022-11-23T08:04:26.160Z,82.10
2022-11-23T08:06:57.150Z,83.00
2022-11-23T08:09:28.141Z,83.80
2022-11-23T08:11:58.892Z,84.00
2022-11-23T08:14:49.063Z,84.60
2022-11-23T08:17:21.632Z,84.80
2022-11-23T08:19:55.359Z,84.70
2022-11-23T08:22:28.355Z,84.90
2022-11-23T08:25:01.967Z,85.10
2022-11-23T08:27:34.115Z,85.50
2022-11-23T08:30:08.986Z,85.70
2022-11-23T08:32:54.222Z,86.20
2022-11-23T08:35:25.945Z,86.70
2022-11-23T08:37:56.726Z,87.20
2022-11-23T08:40:30.204Z,87.60
2022-11-23T08:43:08.477Z,88.00
2022-11-23T08:45:43.328Z,88.50
2022-11-23T08:48:14.288Z,88.50
2022-11-23T08:50:45.921Z,88.60
2022-11-23T08:53:16.763Z,88.80
2022-11-23T08:55:48.115Z,88.50
2022-11-23T08:58:22.879Z,88.20
2022-11-23T09:00:53.618Z,88.10
2022-11-23T09:03:24.945Z,87.80
2022-11-23T09:06:01.592Z,87.10
2022-11-23T09:08:33.984Z,86.80
2022-11-23T09:11:12.588Z,86.50
2022-11-23T09:13:44.935Z,86.80
2022-11-23T09:16:15.881Z,87.00
2022-11-23T09:21:39.839Z,86.90
2022-11-23T09:24:15.760Z,86.70
2022-11-23T09:26:49.348Z,86.40
2022-11-23T09:29:23.245Z,86.40
2022-11-23T09:31:54.549Z,86.50
2022-11-23T09:37:23.073Z,86.50
2022-11-23T09:39:55.665Z,86.70
2022-11-23T09:45:23.882Z,87.60
2022-11-23T09:48:07.244Z,87.70
2022-11-23T09:50:40.370Z,89.40
2022-11-23T09:53:13.506Z,90.00
2022-11-23T09:55:51.899Z,90.20
2022-11-23T09:58:33.543Z,90.50
2022-11-23T10:01:17.523Z,90.70
2022-11-23T10:03:51.905Z,91.30
2022-11-23T10:06:28.048Z,91.20
2022-11-23T10:08:58.949Z,91.30
2022-11-23T10:11:32.070Z,90.80
2022-11-23T10:14:07.116Z,91.20
2022-11-23T10:16:43.908Z,91.40
2022-11-23T10:19:18.334Z,91.20
2022-11-23T10:21:51.451Z,91.20
2022-11-23T10:24:26.150Z,91.30
2022-11-23T10:26:56.893Z,91.40
2022-11-23T10:29:30.036Z,91.50
2022-11-23T10:32:02.275Z,91.60
2022-11-23T10:34:44.367Z,91.60
2022-11-23T10:37:18.045Z,91.40
2022-11-23T10:39:48.749Z,91.50
2022-11-23T10:42:21.883Z,91.20
2022-11-23T10:44:56.948Z,91.40
2022-11-23T10:47:30.010Z,91.30
2022-11-23T10:50:01.871Z,91.30
2022-11-23T10:52:37.573Z,91.20
2022-11-23T10:55:10.943Z,91.20
2022-11-23T10:57:44.059Z,91.30
2022-11-23T11:00:14.530Z,91.30
2022-11-23T11:02:46.395Z,91.50
2022-11-23T11:05:53.103Z,91.50
2022-11-23T11:08:01.265Z,91.50
2022-11-23T11:10:34.350Z,91.50
2022-11-23T11:13:05.319Z,91.60
2022-11-23T11:15:42.443Z,91.50
2022-11-23T11:18:10.449Z,91.50
2022-11-23T11:20:41.756Z,91.40
2022-11-23T11:23:16.401Z,91.30
2022-11-23T11:25:48.996Z,91.00
2022-11-23T11:28:22.041Z,91.50
2022-11-23T11:30:55.111Z,91.00
2022-11-23T11:33:37.695Z,91.00
2022-11-23T11:36:11.003Z,91.00
2022-11-23T11:38:48.528Z,91.20
2022-11-23T11:41:19.364Z,91.10
2022-11-23T11:43:52.705Z,91.30
2022-11-23T11:46:29.685Z,91.40
2022-11-23T11:49:00.612Z,91.50
2022-11-23T11:51:33.688Z,91.70
2022-11-23T11:54:10.364Z,91.70
2022-11-23T11:56:41.170Z,91.70
2022-11-23T11:59:15.095Z,91.60
2022-11-23T12:01:53.937Z,91.60
2022-11-23T12:04:28.997Z,91.60
2022-11-23T12:07:05.309Z,91.70
2022-11-23T12:09:47.394Z,91.70
2022-11-23T12:12:29.769Z,91.70
2022-11-23T12:15:05.114Z,91.90
2022-11-23T12:17:38.862Z,92.00
2022-11-23T12:20:13.877Z,92.00
2022-11-23T12:22:45.634Z,92.40
2022-11-23T12:25:20.179Z,91.90
2022-11-23T12:27:54.692Z,91.70
2022-11-23T12:30:27.715Z,92.40
2022-11-23T12:33:00.922Z,92.90
2022-11-23T12:35:36.369Z,92.90
2022-11-23T12:38:07.130Z,93.40
2022-11-23T12:40:39.253Z,93.50
2022-11-23T12:43:14.471Z,93.60
2022-11-23T12:45:57.597Z,93.60
2022-11-23T12:48:41.063Z,94.00
2022-11-23T12:51:14.337Z,94.50
2022-11-23T12:53:46.592Z,94.90
2022-11-23T12:56:23.994Z,95.40
2022-11-23T12:59:00.459Z,95.40
2022-11-23T13:01:34.070Z,95.80
2022-11-23T13:04:11.150Z,96.30
2022-11-23T13:07:05.556Z,96.50
2022-11-23T13:09:23.727Z,96.70
2022-11-23T13:11:55.223Z,97.00
2022-11-23T13:14:30.074Z,97.30
2022-11-23T13:17:03.726Z,97.30
2022-11-23T13:19:35.356Z,97.00
2022-11-23T13:22:09.830Z,97.40
2022-11-23T13:24:43.470Z,97.40
2022-11-23T13:27:16.680Z,97.40
2022-11-23T13:29:50.127Z,97.50
2022-11-23T13:32:25.635Z,97.70
2022-11-23T13:34:56.536Z,97.90
2022-11-23T13:37:30.755Z,98.00
2022-11-23T13:40:03.671Z,98.10
2022-11-23T13:42:36.824Z,98.30
2022-11-23T13:45:18.825Z,98.40
2022-11-23T13:47:54.023Z,98.40
2022-11-23T13:50:28.909Z,98.40
2022-11-23T13:53:02.485Z,98.30
2022-11-23T13:55:42.322Z,98.30
2022-11-23T13:58:15.464Z,98.30
2022-11-23T14:00:53.392Z,98.30
2022-11-23T14:03:29.486Z,98.40
2022-11-23T14:06:02.877Z,98.40
2022-11-23T14:08:47.943Z,98.70
2022-11-23T14:11:23.490Z,98.40
2022-11-23T14:13:59.914Z,98.30
2022-11-23T14:16:37.399Z,98.40
2022-11-23T14:19:15.745Z,98.70
2022-11-23T14:21:48.188Z,98.40
2022-11-23T14:27:45.658Z,98.80
2022-11-23T14:29:53.573Z,99.00
2022-11-23T14:32:25.681Z,99.00
2022-11-23T14:34:57.871Z,99.00
2022-11-23T14:37:30.138Z,99.10
2022-11-23T14:40:07.976Z,99.00
2022-11-23T14:42:44.539Z,99.00
2022-11-23T14:45:17.437Z,99.00
2022-11-23T14:47:48.420Z,98.80
2022-11-23T14:50:29.051Z,98.80
2022-11-23T14:53:01.207Z,98.30
2022-11-23T14:55:33.940Z,98.50
2022-11-23T14:58:07.181Z,98.60
2022-11-23T15:00:40.524Z,98.50
2022-11-23T15:03:42.469Z,98.50
2022-11-23T15:05:49.426Z,98.30
2022-11-23T15:08:23.236Z,98.10
2022-11-23T15:10:59.637Z,98.00
2022-11-23T15:13:36.143Z,98.10
2022-11-23T15:16:13.209Z,98.00
2022-11-23T15:18:47.305Z,97.90
2022-11-23T15:21:27.573Z,97.80
2022-11-23T15:24:03.473Z,97.90
2022-11-23T15:26:48.509Z,97.80
2022-11-23T15:29:15.350Z,97.80
2022-11-23T15:32:06.942Z,97.90
2022-11-23T15:34:19.951Z,97.90
2022-11-23T15:36:54.547Z,97.90
2022-11-23T15:39:29.056Z,97.90
2022-11-23T15:42:08.487Z,97.80
2022-11-23T15:44:49.079Z,97.80
2022-11-23T15:47:19.930Z,97.90
2022-11-23T15:49:52.584Z,97.90
2022-11-23T15:52:35.864Z,97.90
2022-11-23T15:55:10.149Z,98.00
2022-11-23T15:57:41.148Z,98.10
2022-11-23T16:00:13.696Z,98.00
2022-11-23T16:02:45.203Z,98.20
2022-11-23T16:05:16.676Z,98.20
2022-11-23T16:07:49.834Z,98.20
2022-11-23T16:10:22.907Z,97.50
2022-11-23T16:12:56.095Z,98.20
2022-11-23T16:15:30.308Z,98.50
2022-11-23T16:18:02.581Z,98.40
2022-11-23T16:20:35.574Z,98.50
2022-11-23T16:23:08.232Z,98.70
2022-11-23T16:25:39.349Z,98.60
2022-11-23T16:28:12.367Z,98.70
2022-11-23T16:30:48.462Z,98.80
2022-11-23T16:33:25.787Z,99.00
2022-11-23T16:35:57.013Z,99.10
2022-11-23T16:38:34.319Z,99.00
2022-11-23T16:41:05.495Z,99.20
2022-11-23T16:43:37.010Z,99.20
2022-11-23T16:46:08.008Z,99.40
2022-11-23T16:48:41.321Z,99.30
2022-11-23T16:51:15.082Z,99.30
2022-11-23T16:56:24.742Z,98.90
2022-11-23T16:58:56.448Z,98.80
2022-11-23T17:01:31.092Z,98.90
2022-11-23T17:04:02.067Z,99.10
2022-11-23T17:06:32.801Z,99.10
2022-11-23T17:09:07.903Z,98.90
2022-11-23T17:11:37.248Z,99.10
2022-11-23T17:14:08.712Z,99.10
2022-11-23T17:16:39.769Z,99.30
2022-11-23T17:19:12.938Z,99.30
2022-11-23T17:21:46.810Z,99.50
2022-11-23T17:24:17.939Z,99.40
2022-11-23T17:26:51.883Z,99.30
2022-11-23T17:29:23.691Z,99.30
2022-11-23T17:31:54.693Z,99.30
2022-11-23T17:34:25.570Z,99.30
2022-11-23T17:36:56.496Z,99.40
2022-11-23T17:39:31.794Z,99.30
2022-11-23T17:42:05.050Z,99.40
2022-11-23T17:44:36.492Z,99.60
2022-11-23T17:47:08.244Z,99.40
2022-11-23T17:49:39.127Z,99.10
2022-11-23T17:52:10.952Z,99.10
2022-11-23T17:54:42.474Z,98.80
2022-11-23T17:57:15.538Z,98.80
2022-11-23T17:59:46.918Z,98.80
2022-11-23T18:02:17.922Z,98.80
2022-11-23T18:04:49.757Z,98.70
2022-11-23T18:07:20.502Z,98.60
2022-11-23T18:09:51.676Z,98.60
2022-11-23T18:12:22.619Z,98.80
2022-11-23T18:14:53.338Z,98.80
2022-11-23T18:17:25.199Z,98.70
2022-11-23T18:19:55.972Z,98.70
2022-11-23T18:22:26.683Z,98.80
2022-11-23T18:24:57.734Z,98.80
2022-11-23T18:27:32.637Z,99.00
2022-11-23T18:30:05.945Z,99.00
2022-11-23T18:32:36.893Z,99.00
2022-11-23T18:35:08.258Z,99.00
2022-11-23T18:37:39.023Z,99.00
2022-11-23T18:40:10.683Z,98.90
2022-11-23T18:42:44.425Z,98.90
2022-11-23T18:45:15.160Z,99.00
2022-11-23T18:47:52.192Z,99.00
2022-11-23T18:50:23.198Z,99.00
2022-11-23T18:52:57.715Z,99.10
2022-11-23T18:55:29.845Z,99.10
2022-11-23T18:58:00.781Z,99.10
2022-11-23T19:00:31.545Z,99.10
2022-11-23T19:03:04.265Z,99.10
2022-11-23T19:05:39.866Z,99.10
2022-11-23T19:08:11.789Z,99.20
2022-11-23T19:10:42.513Z,99.50
2022-11-23T19:13:13.243Z,99.30
2022-11-23T19:15:44.773Z,99.20
2022-11-23T19:18:15.677Z,99.20
2022-11-23T19:20:46.393Z,99.10
2022-11-23T19:23:17.116Z,99.30
2022-11-23T19:25:47.841Z,99.00
2022-11-23T19:28:18.557Z,99.10
2022-11-23T19:30:49.358Z,99.10
2022-11-23T19:33:20.327Z,98.80
2022-11-23T19:35:51.097Z,99.10
2022-11-23T19:38:24.746Z,99.30
2022-11-23T19:40:57.054Z,99.60
2022-11-23T19:43:27.937Z,99.80
2022-11-23T19:46:00.704Z,99.90
2022-11-23T19:48:33.350Z,99.90
2022-11-23T19:51:06.363Z,99.90
2022-11-23T19:53:39.097Z,99.90
2022-11-23T19:56:15.911Z,99.90
2022-11-23T19:58:46.067Z,99.90
2022-11-23T20:01:19.348Z,99.90
2022-11-23T20:03:52.874Z,99.90
2022-11-23T20:06:30.154Z,99.90
2022-11-23T20:09:03.635Z,99.90
2022-11-23T20:11:36.063Z,99.90
2022-11-23T20:14:07.017Z,99.90
2022-11-23T20:16:37.792Z,99.90
2022-11-23T20:19:10.558Z,99.90
2022-11-23T20:21:41.683Z,99.90
2022-11-23T20:24:17.287Z,99.90
2022-11-23T20:26:48.311Z,99.90
2022-11-23T20:29:19.043Z,99.90
2022-11-23T20:31:51.756Z,99.90
2022-11-23T20:34:26.231Z,99.90
2022-11-23T20:36:56.007Z,99.90
2022-11-23T20:39:26.731Z,99.90
2022-11-23T20:41:57.557Z,99.90
2022-11-23T20:44:33.902Z,99.90
2022-11-23T20:47:03.253Z,99.90
2022-11-23T20:49:35.594Z,99.90
2022-11-23T20:52:06.438Z,99.90
2022-11-23T20:54:39.321Z,99.90
2022-11-23T20:57:10.367Z,99.90
2022-11-23T20:59:41.790Z,99.90
2022-11-23T21:02:13.633Z,99.90
2022-11-23T21:04:44.573Z,99.90
2022-11-23T21:07:15.472Z,99.90
2022-11-23T21:09:49.755Z,99.90
2022-11-23T21:12:22.043Z,99.90
2022-11-23T21:14:53.829Z,99.90
2022-11-23T21:17:24.549Z,99.90
2022-11-23T21:19:55.269Z,99.90
2022-11-23T21:22:26.088Z,99.90
2022-11-23T21:24:56.834Z,99.90
2022-11-23T21:27:28.915Z,99.90
2022-11-23T21:29:59.678Z,99.90
2022-11-23T21:32:30.765Z,99.90
2022-11-23T21:35:02.217Z,99.90
2022-11-23T21:37:34.795Z,99.90
2022-11-23T21:40:05.632Z,99.90
2022-11-23T21:42:36.482Z,99.90
2022-11-23T21:45:09.858Z,99.90
2022-11-23T21:47:40.619Z,99.90
2022-11-23T21:50:11.618Z,99.90
2022-11-23T21:52:45.333Z,99.90
2022-11-23T21:55:16.465Z,99.90
2022-11-23T21:57:47.342Z,99.90
2022-11-23T22:00:18.464Z,99.90
2022-11-23T22:02:49.162Z,99.90
2022-11-23T22:05:19.905Z,99.90
2022-11-23T22:08:13.646Z,99.90
2022-11-23T22:10:22.685Z,99.90
2022-11-23T22:12:55.015Z,99.90
2022-11-23T22:15:25.823Z,99.90
2022-11-23T22:17:59.342Z,99.90
2022-11-23T22:20:30.082Z,99.90
2022-11-23T22:23:00.789Z,99.90
2022-11-23T22:25:31.651Z,99.90
2022-11-23T22:28:02.721Z,99.90
2022-11-23T22:30:35.089Z,99.90
2022-11-23T22:33:05.827Z,99.90
2022-11-23T22:35:36.631Z,99.90
2022-11-23T22:38:07.315Z,99.90
2022-11-23T22:40:38.036Z,99.90
2022-11-23T22:43:08.880Z,99.90
2022-11-23T22:45:39.843Z,99.90
2022-11-23T22:48:12.379Z,99.90
2022-11-23T22:50:45.728Z,99.90
2022-11-23T22:53:20.345Z,99.90
2022-11-23T22:55:51.591Z,99.90
2022-11-23T22:58:23.765Z,99.90
2022-11-23T23:00:54.755Z,99.90
2022-11-23T23:03:26.149Z,99.90
2022-11-23T23:06:00.767Z,99.90
2022-11-23T23:08:32.447Z,99.90
2022-11-23T23:11:09.910Z,99.90
2022-11-23T23:13:41.074Z,99.90
2022-11-23T23:16:15.156Z,99.90
2022-11-23T23:18:46.600Z,99.90
2022-11-23T23:21:19.571Z,99.90
2022-11-23T23:23:53.163Z,99.90
2022-11-23T23:26:26.493Z,99.90
2022-11-23T23:29:02.213Z,99.90
2022-11-23T23:31:33.217Z,99.90
2022-11-23T23:34:06.053Z,99.90
2022-11-23T23:36:38.295Z,99.90
2022-11-23T23:39:09.263Z,99.90
2022-11-23T23:41:40.764Z,99.90
2022-11-23T23:44:11.788Z,99.90
2022-11-23T23:46:42.721Z,99.90
2022-11-23T23:49:13.674Z,99.90
2022-11-23T23:51:48.783Z,99.90
2022-11-23T23:54:16.942Z,99.90
2022-11-23T23:56:47.915Z,99.90
2022-11-23T23:59:21.903Z,99.90
